Terminal Aerodrome Forecast
Issued by NWS

Home | Current Version | Previous Version | Text Only | Print | Product List | Glossary On
Versions: 1 2 3 4 5 6 7 8 9 10 11 12 13 14 15
000
FTUS42 TJSJ 162300
TAFJBQ
TAF
TJBQ 162323Z 1700/1724 09011KT P6SM SCT025 SCT050
     FM170330 10004KT P6SM FEW030
     FM171430 06015KT P6SM SCT030
     FM172330 09008KT P6SM FEW030 SCT070=

USA.gov is the U.S. government's official web portal to all federal, state and local government web resources and services.